createdAt,value
2023-01-15T00:01:31.373Z,92.80
2023-01-15T00:03:40.020Z,92.80
2023-01-15T00:05:47.196Z,92.90
2023-01-15T00:07:54.900Z,92.90
2023-01-15T00:10:02.373Z,92.80
2023-01-15T00:12:09.503Z,92.70
2023-01-15T00:14:16.992Z,92.80
2023-01-15T00:16:25.858Z,92.90
2023-01-15T00:18:33.141Z,93.50
2023-01-15T00:20:41.705Z,93.50
2023-01-15T00:22:48.992Z,93.70
2023-01-15T00:25:12.559Z,94.20
2023-01-15T00:27:36.379Z,94.20
2023-01-15T00:29:43.200Z,94.50
2023-01-15T00:31:57.765Z,94.60
2023-01-15T00:34:04.833Z,94.60
2023-01-15T00:36:13.860Z,94.60
2023-01-15T00:38:20.687Z,94.60
2023-01-15T00:40:27.930Z,94.60
2023-01-15T00:42:34.843Z,94.50
2023-01-15T00:44:43.506Z,94.70
2023-01-15T00:46:51.005Z,94.40
2023-01-15T00:49:00.940Z,94.60
2023-01-15T00:51:09.604Z,94.50
2023-01-15T00:53:18.530Z,94.30
2023-01-15T00:55:25.464Z,94.10
2023-01-15T00:57:32.790Z,94.20
2023-01-15T00:59:39.704Z,94.00
2023-01-15T01:01:46.998Z,94.00
2023-01-15T01:03:54.030Z,93.80
2023-01-15T01:06:05.258Z,93.90
2023-01-15T01:08:12.078Z,93.60
2023-01-15T01:10:21.307Z,93.50
2023-01-15T01:12:28.285Z,93.10
2023-01-15T01:14:35.773Z,92.90
2023-01-15T01:16:44.183Z,93.10
2023-01-15T01:18:51.364Z,92.90
2023-01-15T01:20:58.442Z,92.90
2023-01-15T01:23:05.679Z,92.20
2023-01-15T01:25:13.888Z,91.70
2023-01-15T01:27:22.808Z,91.60
2023-01-15T01:29:29.677Z,91.40
2023-01-15T01:31:37.608Z,90.90
2023-01-15T01:33:44.709Z,90.20
2023-01-15T01:35:52.816Z,90.00
2023-01-15T01:37:59.637Z,89.20
2023-01-15T01:40:07.072Z,89.60
2023-01-15T01:42:16.527Z,89.20
2023-01-15T01:44:59.170Z,88.30
2023-01-15T01:47:11.009Z,88.20
2023-01-15T01:49:18.754Z,87.50
2023-01-15T01:51:28.291Z,86.80
2023-01-15T01:53:36.497Z,86.00
2023-01-15T01:55:43.832Z,84.00
2023-01-15T01:57:53.578Z,84.30
2023-01-15T02:00:02.261Z,83.80
2023-01-15T02:02:23.708Z,83.50
2023-01-15T02:04:32.065Z,82.30
2023-01-15T02:06:41.089Z,81.90
2023-01-15T02:08:48.732Z,81.10
2023-01-15T02:10:59.498Z,80.10
2023-01-15T02:13:17.636Z,79.20
2023-01-15T02:15:32.344Z,77.90
2023-01-15T02:17:48.384Z,76.60
2023-01-15T02:20:12.001Z,76.10
2023-01-15T02:22:30.547Z,74.90
2023-01-15T02:24:46.946Z,74.90
2023-01-15T02:27:18.348Z,75.90
2023-01-15T02:29:32.852Z,74.40
2023-01-15T02:31:41.943Z,74.10
2023-01-15T02:33:54.943Z,74.10
2023-01-15T02:36:07.398Z,73.10
2023-01-15T02:38:18.982Z,71.90
2023-01-15T02:40:31.337Z,71.40
2023-01-15T02:42:42.717Z,68.60
2023-01-15T02:44:52.565Z,66.40
2023-01-15T02:47:01.590Z,66.80
2023-01-15T02:49:11.940Z,66.80
2023-01-15T02:51:26.649Z,65.80
2023-01-15T02:53:36.082Z,64.70
2023-01-15T02:55:49.108Z,65.00
2023-01-15T02:58:03.868Z,64.90
2023-01-15T03:00:17.338Z,62.80
2023-01-15T03:02:27.946Z,60.70
2023-01-15T03:04:39.282Z,61.80
2023-01-15T03:06:52.709Z,61.40
2023-01-15T03:09:02.661Z,61.90
2023-01-15T03:11:14.406Z,62.00
2023-01-15T03:13:32.944Z,61.00
2023-01-15T03:16:07.572Z,58.70
2023-01-15T03:18:18.286Z,59.90
2023-01-15T03:20:29.823Z,60.30
2023-01-15T03:22:39.759Z,60.10
2023-01-15T03:24:50.343Z,57.60
2023-01-15T03:26:59.090Z,59.40
2023-01-15T03:29:11.241Z,57.30
2023-01-15T03:31:19.547Z,56.70
2023-01-15T03:33:27.446Z,57.10
2023-01-15T03:35:50.348Z,55.80
2023-01-15T03:38:25.363Z,57.10
2023-01-15T03:40:35.426Z,55.70
2023-01-15T03:42:50.545Z,55.90
2023-01-15T03:45:06.075Z,54.90
2023-01-15T03:47:35.277Z,53.30
2023-01-15T03:49:50.273Z,53.60
2023-01-15T03:52:23.270Z,54.60
2023-01-15T03:54:43.819Z,53.90
2023-01-15T03:56:57.937Z,54.20
2023-01-15T03:59:12.938Z,53.70
2023-01-15T04:01:40.205Z,54.70
2023-01-15T04:03:49.561Z,54.20
2023-01-15T04:06:00.327Z,54.10
2023-01-15T04:08:09.257Z,54.80
2023-01-15T04:10:16.694Z,53.90
2023-01-15T04:12:24.792Z,54.60
2023-01-15T04:14:34.182Z,54.20
2023-01-15T04:16:48.560Z,51.60
2023-01-15T04:18:55.501Z,53.70
2023-01-15T04:21:05.370Z,52.40
2023-01-15T04:23:14.626Z,52.60
2023-01-15T04:25:21.903Z,52.30
2023-01-15T04:27:29.586Z,53.50
2023-01-15T04:29:37.619Z,50.90
2023-01-15T04:31:44.517Z,50.70
2023-01-15T04:33:53.230Z,51.50
2023-01-15T04:36:03.038Z,46.50
2023-01-15T04:38:10.493Z,48.70
2023-01-15T04:40:37.888Z,44.70
2023-01-15T04:43:01.960Z,45.50
2023-01-15T04:45:09.718Z,46.30
2023-01-15T04:47:16.888Z,45.10
2023-01-15T04:49:25.862Z,42.70
2023-01-15T04:51:33.042Z,39.60
2023-01-15T04:53:39.970Z,41.80
2023-01-15T04:55:47.354Z,41.70
2023-01-15T04:57:54.428Z,43.60
2023-01-15T05:00:01.641Z,41.50
2023-01-15T05:02:08.736Z,42.20
2023-01-15T05:04:16.147Z,40.70
2023-01-15T05:06:24.902Z,41.50
2023-01-15T05:08:32.290Z,40.90
2023-01-15T05:10:39.164Z,42.10
2023-01-15T05:12:46.449Z,40.50
2023-01-15T05:14:53.229Z,40.70
2023-01-15T05:17:00.657Z,40.90
2023-01-15T05:19:10.063Z,39.90
2023-01-15T05:21:23.318Z,41.70
2023-01-15T05:23:31.975Z,40.00
2023-01-15T05:25:40.806Z,37.10
2023-01-15T05:27:48.134Z,40.30
2023-01-15T05:29:54.959Z,39.20
2023-01-15T05:32:02.159Z,38.40
2023-01-15T05:34:09.066Z,39.70
2023-01-15T05:36:17.936Z,39.80
2023-01-15T05:38:24.795Z,39.40
2023-01-15T05:40:33.682Z,38.00
2023-01-15T05:42:40.608Z,37.30
2023-01-15T05:44:47.792Z,37.20
2023-01-15T05:46:56.256Z,37.30
2023-01-15T05:49:04.559Z,38.50
2023-01-15T05:51:11.540Z,37.60
2023-01-15T05:53:18.770Z,36.30
2023-01-15T05:55:25.643Z,36.00
2023-01-15T05:57:35.386Z,37.10
2023-01-15T05:59:42.674Z,37.30
2023-01-15T06:01:50.115Z,38.30
2023-01-15T06:03:57.200Z,37.30
2023-01-15T06:06:04.415Z,36.30
2023-01-15T06:08:11.398Z,37.50
2023-01-15T06:10:19.911Z,37.90
2023-01-15T06:12:26.936Z,38.30
2023-01-15T06:14:35.814Z,37.20
2023-01-15T06:16:43.127Z,36.30
2023-01-15T06:18:50.378Z,37.50
2023-01-15T06:20:57.970Z,37.10
2023-01-15T06:23:05.154Z,35.30
2023-01-15T06:25:12.432Z,35.80
2023-01-15T06:27:19.718Z,35.80
2023-01-15T06:29:26.955Z,34.30
2023-01-15T06:31:35.600Z,35.60
2023-01-15T06:33:42.603Z,34.50
2023-01-15T06:35:51.669Z,33.70
2023-01-15T06:37:58.957Z,35.90
2023-01-15T06:40:05.878Z,35.10
2023-01-15T06:42:30.214Z,33.40
2023-01-15T06:44:53.062Z,33.70
2023-01-15T06:47:18.626Z,32.50
2023-01-15T06:49:25.504Z,33.50
2023-01-15T06:51:32.628Z,33.50
2023-01-15T06:53:39.355Z,35.90
2023-01-15T06:55:47.096Z,34.80
2023-01-15T06:57:53.966Z,32.40
2023-01-15T07:00:01.042Z,33.00
2023-01-15T07:02:09.971Z,32.80
2023-01-15T07:04:17.921Z,32.30
2023-01-15T07:06:26.430Z,33.50
2023-01-15T07:08:33.817Z,32.40
2023-01-15T07:10:40.848Z,34.10
2023-01-15T07:12:48.079Z,34.50
2023-01-15T07:14:55.210Z,33.50
2023-01-15T07:17:02.442Z,32.90
2023-01-15T07:19:11.884Z,33.00
2023-01-15T07:21:19.150Z,32.60
2023-01-15T07:23:26.637Z,34.70
2023-01-15T07:25:33.616Z,34.80
2023-01-15T07:27:40.913Z,34.50
2023-01-15T07:29:49.116Z,32.80
2023-01-15T07:31:56.543Z,33.30
2023-01-15T07:34:03.692Z,33.10
2023-01-15T07:36:13.128Z,33.50
2023-01-15T07:38:19.993Z,33.40
2023-01-15T07:40:27.265Z,33.90
2023-01-15T07:42:50.846Z,33.90
2023-01-15T07:45:14.514Z,35.00
2023-01-15T07:47:40.621Z,32.40
2023-01-15T07:49:50.954Z,33.70
2023-01-15T07:51:59.662Z,33.70
2023-01-15T07:54:06.996Z,34.40
2023-01-15T07:56:14.180Z,33.70
2023-01-15T07:58:21.209Z,33.90
2023-01-15T08:00:28.742Z,33.40
2023-01-15T08:02:36.029Z,33.20
2023-01-15T08:04:43.311Z,33.90
2023-01-15T08:06:50.547Z,33.50
2023-01-15T08:08:59.264Z,33.90
2023-01-15T08:11:23.343Z,34.10
2023-01-15T08:13:47.012Z,34.20
2023-01-15T08:15:54.402Z,33.50
2023-01-15T08:18:01.846Z,33.50
2023-01-15T08:20:11.488Z,33.60
2023-01-15T08:22:18.501Z,33.30
2023-01-15T08:24:27.422Z,33.00
2023-01-15T08:26:34.333Z,33.60
2023-01-15T08:28:41.485Z,33.90
2023-01-15T08:30:48.355Z,34.20
2023-01-15T08:32:55.512Z,34.90
2023-01-15T08:35:02.180Z,35.60
2023-01-15T08:37:09.340Z,33.60
2023-01-15T08:39:16.167Z,34.40
2023-01-15T08:41:25.180Z,35.00
2023-01-15T08:43:33.743Z,34.10
2023-01-15T08:45:40.918Z,33.90
2023-01-15T08:47:47.752Z,34.20
2023-01-15T08:49:54.989Z,34.50
2023-01-15T08:52:02.002Z,35.10
2023-01-15T08:54:09.092Z,32.70
2023-01-15T08:56:17.095Z,33.50
2023-01-15T08:58:26.116Z,34.00
2023-01-15T09:00:33.404Z,34.70
2023-01-15T09:02:40.535Z,34.30
2023-01-15T09:04:47.592Z,35.00
2023-01-15T09:06:55.615Z,33.70
2023-01-15T09:09:03.416Z,33.90
2023-01-15T09:11:13.662Z,34.00
2023-01-15T09:13:20.689Z,34.20
2023-01-15T09:15:29.738Z,34.70
2023-01-15T09:17:41.490Z,34.60
2023-01-15T09:19:48.838Z,34.90
2023-01-15T09:21:56.031Z,34.50
2023-01-15T09:24:03.898Z,34.70
2023-01-15T09:26:24.713Z,34.80
2023-01-15T09:28:32.503Z,35.10
2023-01-15T09:30:41.354Z,35.10
2023-01-15T09:32:48.319Z,35.70
2023-01-15T09:34:55.554Z,36.10
2023-01-15T09:37:02.374Z,36.20
2023-01-15T09:39:09.551Z,36.10
2023-01-15T09:41:31.376Z,36.10
2023-01-15T09:43:51.401Z,36.00
2023-01-15T09:46:04.315Z,36.00
2023-01-15T09:48:31.994Z,35.90
2023-01-15T09:50:51.514Z,36.00
2023-01-15T09:53:13.588Z,36.00
2023-01-15T09:55:23.535Z,36.40
2023-01-15T09:57:31.637Z,36.20
2023-01-15T09:59:41.329Z,36.30
2023-01-15T10:01:51.822Z,36.80
2023-01-15T10:04:04.165Z,37.50
2023-01-15T10:06:18.424Z,37.90
2023-01-15T10:08:28.639Z,37.80
2023-01-15T10:10:43.793Z,37.90
2023-01-15T10:12:51.744Z,37.90
2023-01-15T10:15:04.169Z,37.80
2023-01-15T10:17:28.769Z,37.80
2023-01-15T10:19:44.384Z,38.30
2023-01-15T10:21:57.506Z,38.70
2023-01-15T10:24:11.751Z,39.00
2023-01-15T10:26:31.311Z,39.30
2023-01-15T10:29:09.222Z,39.80
2023-01-15T10:31:22.211Z,40.60
2023-01-15T10:33:49.187Z,41.70
2023-01-15T10:36:01.644Z,43.00
2023-01-15T10:38:17.227Z,43.50
2023-01-15T10:40:40.788Z,45.20
2023-01-15T10:42:57.493Z,48.30
2023-01-15T10:45:13.035Z,50.20
2023-01-15T10:47:23.357Z,50.90
2023-01-15T10:49:34.089Z,52.50
2023-01-15T10:51:45.379Z,52.90
2023-01-15T10:53:58.282Z,53.10
2023-01-15T10:56:10.740Z,52.40
2023-01-15T10:58:25.075Z,50.70
2023-01-15T11:00:35.195Z,49.80
2023-01-15T11:02:45.732Z,50.10
2023-01-15T11:04:55.230Z,52.90
2023-01-15T11:07:04.361Z,54.00
2023-01-15T11:09:19.385Z,55.70
2023-01-15T11:11:57.811Z,56.00
2023-01-15T11:14:21.612Z,57.00
2023-01-15T11:16:46.969Z,57.00
2023-01-15T11:19:11.508Z,55.20
2023-01-15T11:21:22.793Z,56.20
2023-01-15T11:23:29.954Z,55.70
2023-01-15T11:25:37.360Z,54.80
2023-01-15T11:27:44.794Z,53.70
2023-01-15T11:29:56.993Z,54.30
2023-01-15T11:32:04.274Z,56.30
2023-01-15T11:34:22.384Z,57.40
2023-01-15T11:36:32.971Z,56.80
2023-01-15T11:38:48.713Z,56.10
2023-01-15T11:40:57.875Z,58.30
2023-01-15T11:43:21.654Z,58.70
2023-01-15T11:45:45.273Z,59.20
2023-01-15T11:48:12.269Z,57.20
2023-01-15T11:50:40.041Z,56.70
2023-01-15T11:52:52.182Z,56.80
2023-01-15T11:54:59.632Z,58.90
2023-01-15T11:57:07.274Z,58.30
2023-01-15T11:59:16.646Z,58.60
2023-01-15T12:01:29.640Z,58.50
2023-01-15T12:03:39.213Z,60.80
2023-01-15T12:05:50.937Z,60.70
2023-01-15T12:08:02.116Z,60.00
2023-01-15T12:10:42.169Z,60.20
2023-01-15T12:13:04.536Z,62.10
2023-01-15T12:15:19.281Z,63.70
2023-01-15T12:17:40.321Z,65.60
2023-01-15T12:19:55.730Z,59.40
2023-01-15T12:22:25.291Z,58.80
2023-01-15T12:24:57.813Z,59.30
2023-01-15T12:27:19.756Z,62.90
2023-01-15T12:29:30.979Z,65.00
2023-01-15T12:31:44.564Z,64.70
2023-01-15T12:33:56.661Z,62.40
2023-01-15T12:36:10.141Z,62.90
2023-01-15T12:38:23.265Z,63.90
2023-01-15T12:40:44.629Z,65.70
2023-01-15T12:43:11.872Z,65.70
2023-01-15T12:45:23.360Z,66.40
2023-01-15T12:47:35.661Z,67.30
2023-01-15T12:49:47.962Z,67.20
2023-01-15T12:52:00.877Z,66.20
2023-01-15T12:54:14.355Z,66.80
2023-01-15T12:56:28.755Z,67.30
2023-01-15T12:58:43.412Z,68.00
2023-01-15T13:00:51.124Z,68.90
2023-01-15T13:03:08.685Z,69.10
2023-01-15T13:05:22.006Z,69.10
2023-01-15T13:07:33.643Z,69.60
2023-01-15T13:09:46.867Z,70.10
2023-01-15T13:11:56.097Z,70.90
2023-01-15T13:14:02.975Z,70.90
2023-01-15T13:16:18.425Z,71.50
2023-01-15T13:18:35.238Z,71.70
2023-01-15T13:20:52.269Z,71.10
2023-01-15T13:23:10.915Z,72.20
2023-01-15T13:25:41.806Z,72.00
2023-01-15T13:28:00.405Z,72.80
2023-01-15T13:30:24.946Z,73.10
2023-01-15T13:32:36.019Z,73.40
2023-01-15T13:34:48.316Z,73.80
2023-01-15T13:36:59.339Z,73.90
2023-01-15T13:39:08.414Z,73.90
2023-01-15T13:41:43.091Z,73.40
2023-01-15T13:43:56.314Z,73.40
2023-01-15T13:46:04.430Z,74.10
2023-01-15T13:48:16.057Z,74.10
2023-01-15T13:50:30.926Z,74.10
2023-01-15T13:52:40.040Z,74.20
2023-01-15T13:54:47.223Z,74.40
2023-01-15T13:56:54.564Z,74.70
2023-01-15T13:59:04.557Z,75.20
2023-01-15T14:01:27.133Z,75.40
2023-01-15T14:03:36.023Z,74.90
2023-01-15T14:05:43.871Z,75.00
2023-01-15T14:07:50.848Z,75.40
2023-01-15T14:09:57.975Z,75.80
2023-01-15T14:12:15.457Z,75.80
2023-01-15T14:14:49.458Z,75.80
2023-01-15T14:17:05.143Z,76.40
2023-01-15T14:19:30.650Z,76.20
2023-01-15T14:21:47.406Z,76.50
2023-01-15T14:24:20.446Z,76.50
2023-01-15T14:26:39.352Z,77.20
2023-01-15T14:29:05.277Z,77.20
2023-01-15T14:31:31.775Z,78.00
2023-01-15T14:33:49.485Z,77.50
2023-01-15T14:35:57.392Z,77.40
2023-01-15T14:38:09.070Z,77.80
2023-01-15T14:40:20.918Z,77.40
2023-01-15T14:42:48.426Z,78.40
2023-01-15T14:45:05.031Z,77.30
2023-01-15T14:47:27.310Z,77.50
2023-01-15T14:49:46.471Z,78.10
2023-01-15T14:51:54.430Z,78.30
2023-01-15T14:54:05.546Z,78.70
2023-01-15T14:56:21.385Z,78.70
2023-01-15T14:58:41.480Z,78.80
2023-01-15T15:00:55.779Z,78.80
2023-01-15T15:03:06.647Z,78.90
2023-01-15T15:05:18.726Z,79.10
2023-01-15T15:07:27.905Z,78.90
2023-01-15T15:09:39.707Z,78.60
2023-01-15T15:12:07.670Z,77.80
2023-01-15T15:14:15.969Z,77.40
2023-01-15T15:16:28.492Z,78.00
2023-01-15T15:18:42.527Z,78.10
2023-01-15T15:20:54.771Z,78.50
2023-01-15T15:23:07.952Z,78.30
2023-01-15T15:25:20.807Z,78.00
2023-01-15T15:27:28.654Z,77.80
2023-01-15T15:29:35.886Z,77.80
2023-01-15T15:31:46.243Z,78.90
2023-01-15T15:33:56.702Z,79.60
2023-01-15T15:36:04.604Z,80.00
2023-01-15T15:38:18.705Z,80.30
2023-01-15T15:40:31.982Z,80.20
2023-01-15T15:43:06.951Z,80.40
2023-01-15T15:45:38.608Z,80.30
2023-01-15T15:48:02.685Z,80.50
2023-01-15T15:50:22.169Z,80.50
2023-01-15T15:52:30.619Z,80.10
2023-01-15T15:54:37.645Z,80.50
2023-01-15T15:56:54.910Z,80.60
2023-01-15T15:59:02.093Z,80.80
2023-01-15T16:01:13.681Z,81.10
2023-01-15T16:03:24.702Z,81.30
2023-01-15T16:05:33.985Z,81.50
2023-01-15T16:07:41.008Z,82.70
2023-01-15T16:09:54.706Z,83.00
2023-01-15T16:12:08.328Z,84.50
2023-01-15T16:14:16.955Z,85.20
2023-01-15T16:16:29.050Z,85.20
2023-01-15T16:18:35.965Z,84.80
2023-01-15T16:20:44.936Z,84.30
2023-01-15T16:22:56.969Z,84.70
2023-01-15T16:25:04.320Z,85.20
2023-01-15T16:27:20.153Z,85.20
2023-01-15T16:29:29.795Z,85.40
2023-01-15T16:31:40.811Z,85.60
2023-01-15T16:33:48.003Z,85.60
2023-01-15T16:36:05.621Z,85.70
2023-01-15T16:38:23.158Z,85.60
2023-01-15T16:40:33.042Z,85.40
2023-01-15T16:42:44.063Z,84.80
2023-01-15T16:44:56.317Z,84.80
2023-01-15T16:47:03.647Z,84.60
2023-01-15T16:49:31.886Z,85.40
2023-01-15T16:51:43.970Z,84.90
2023-01-15T16:53:51.199Z,84.70
2023-01-15T16:55:58.695Z,85.40
2023-01-15T16:58:20.195Z,85.80
2023-01-15T17:00:34.155Z,86.20
2023-01-15T17:02:49.369Z,86.00
2023-01-15T17:04:56.342Z,86.30
2023-01-15T17:07:07.428Z,86.40
2023-01-15T17:09:18.286Z,86.30
2023-01-15T17:11:28.029Z,86.20
2023-01-15T17:13:38.047Z,86.20
2023-01-15T17:15:45.674Z,86.70
2023-01-15T17:17:53.422Z,86.70
2023-01-15T17:20:00.811Z,87.00
2023-01-15T17:22:14.283Z,86.90
2023-01-15T17:24:21.307Z,87.40
2023-01-15T17:26:29.804Z,87.80
2023-01-15T17:28:37.060Z,88.20
2023-01-15T17:30:43.929Z,88.50
2023-01-15T17:32:51.416Z,88.50
2023-01-15T17:34:58.647Z,88.00
2023-01-15T17:37:07.521Z,87.80
2023-01-15T17:39:15.367Z,88.10
2023-01-15T17:41:24.395Z,89.00
2023-01-15T17:43:31.325Z,89.10
2023-01-15T17:45:38.960Z,89.40
2023-01-15T17:47:45.835Z,89.20
2023-01-15T17:49:53.118Z,88.50
2023-01-15T17:52:00.509Z,87.80
2023-01-15T17:54:09.734Z,87.50
2023-01-15T17:56:33.159Z,87.30
2023-01-15T17:58:57.079Z,87.40
2023-01-15T18:01:21.780Z,87.30
2023-01-15T18:03:45.942Z,87.20
2023-01-15T18:05:54.608Z,87.10
2023-01-15T18:08:03.582Z,87.30
2023-01-15T18:10:19.684Z,87.30
2023-01-15T18:12:27.111Z,87.70
2023-01-15T18:14:35.425Z,88.00
2023-01-15T18:16:42.654Z,88.00
2023-01-15T18:18:49.641Z,87.80
2023-01-15T18:20:56.865Z,87.60
2023-01-15T18:23:03.837Z,87.60
2023-01-15T18:25:13.894Z,87.40
2023-01-15T18:27:21.019Z,87.60
2023-01-15T18:29:28.200Z,88.00
2023-01-15T18:31:35.447Z,88.20
2023-01-15T18:33:42.671Z,88.10
2023-01-15T18:35:50.209Z,88.30
2023-01-15T18:37:57.438Z,88.30
2023-01-15T18:40:04.417Z,88.10
2023-01-15T18:42:42.219Z,88.00
2023-01-15T18:45:05.476Z,87.90
2023-01-15T18:47:14.751Z,87.90
2023-01-15T18:49:21.963Z,88.10
2023-01-15T18:51:29.476Z,87.90
2023-01-15T18:53:36.414Z,87.90
2023-01-15T18:55:44.816Z,87.80
2023-01-15T18:57:53.571Z,88.10
2023-01-15T19:00:00.741Z,87.90
2023-01-15T19:02:08.113Z,87.90
2023-01-15T19:04:15.429Z,88.00
2023-01-15T19:06:22.367Z,87.70
2023-01-15T19:08:30.050Z,87.70
2023-01-15T19:10:37.034Z,87.20
2023-01-15T19:12:44.770Z,87.40
2023-01-15T19:15:10.096Z,87.40
2023-01-15T19:17:34.207Z,87.40
2023-01-15T19:19:43.305Z,86.90
2023-01-15T19:22:10.585Z,87.00
2023-01-15T19:24:17.565Z,86.90
2023-01-15T19:26:24.847Z,87.20
2023-01-15T19:28:34.333Z,86.80
2023-01-15T19:30:43.511Z,86.70
2023-01-15T19:32:50.556Z,86.60
2023-01-15T19:34:57.724Z,86.40
2023-01-15T19:37:04.696Z,86.50
2023-01-15T19:39:11.776Z,86.70
2023-01-15T19:41:35.292Z,87.10
2023-01-15T19:43:59.214Z,86.50
2023-01-15T19:46:30.068Z,86.90
2023-01-15T19:48:54.254Z,86.80
2023-01-15T19:51:01.259Z,86.60
2023-01-15T19:53:08.953Z,86.80
2023-01-15T19:55:16.501Z,86.80
2023-01-15T19:57:23.684Z,86.40
2023-01-15T19:59:30.610Z,86.20
2023-01-15T20:01:39.577Z,86.20
2023-01-15T20:03:47.318Z,86.40
2023-01-15T20:05:54.806Z,86.60
2023-01-15T20:08:02.093Z,86.80
2023-01-15T20:10:11.840Z,87.00
2023-01-15T20:12:35.168Z,86.70
2023-01-15T20:14:42.580Z,86.70
2023-01-15T20:16:51.157Z,86.60
2023-01-15T20:18:58.428Z,86.70
2023-01-15T20:21:05.404Z,87.10
2023-01-15T20:23:12.795Z,87.40
2023-01-15T20:25:19.728Z,87.50
2023-01-15T20:27:27.053Z,87.50
2023-01-15T20:29:33.879Z,87.80
2023-01-15T20:31:41.103Z,88.10
2023-01-15T20:33:50.401Z,88.60
2023-01-15T20:35:57.880Z,88.70
2023-01-15T20:38:04.906Z,89.10
2023-01-15T20:40:13.264Z,89.00
2023-01-15T20:42:37.293Z,88.80
2023-01-15T20:44:56.499Z,88.70
2023-01-15T20:47:23.709Z,89.00
2023-01-15T20:49:33.347Z,89.60
2023-01-15T20:51:40.579Z,89.80
2023-01-15T20:53:47.608Z,89.40
2023-01-15T20:55:57.539Z,89.40
2023-01-15T20:58:04.920Z,89.40
2023-01-15T21:00:16.523Z,89.20
2023-01-15T21:02:23.346Z,89.50
2023-01-15T21:04:32.599Z,89.50
2023-01-15T21:06:39.556Z,89.50
2023-01-15T21:08:47.463Z,89.70
2023-01-15T21:10:56.184Z,90.00
2023-01-15T21:13:03.351Z,90.30
2023-01-15T21:15:11.199Z,90.50
2023-01-15T21:17:18.329Z,90.70
2023-01-15T21:19:25.971Z,90.60
2023-01-15T21:21:34.946Z,90.40
2023-01-15T21:23:41.824Z,90.60
2023-01-15T21:25:49.164Z,90.50
2023-01-15T21:27:56.027Z,90.10
2023-01-15T21:30:03.262Z,90.40
2023-01-15T21:32:10.445Z,90.30
2023-01-15T21:34:17.623Z,90.50
2023-01-15T21:36:25.477Z,90.90
2023-01-15T21:38:34.667Z,91.20
2023-01-15T21:40:42.250Z,91.40
2023-01-15T21:43:06.319Z,91.10
2023-01-15T21:45:13.910Z,91.10
2023-01-15T21:47:22.375Z,91.00
2023-01-15T21:49:29.604Z,90.70
2023-01-15T21:51:36.637Z,90.60
2023-01-15T21:53:45.146Z,90.60
2023-01-15T21:55:55.655Z,90.70
2023-01-15T21:58:02.938Z,90.60
2023-01-15T22:00:11.503Z,90.40
2023-01-15T22:02:22.659Z,90.40
2023-01-15T22:04:30.832Z,90.20
2023-01-15T22:06:38.086Z,90.40
2023-01-15T22:08:47.091Z,90.60
2023-01-15T22:10:54.187Z,90.80
2023-01-15T22:13:01.419Z,90.90
2023-01-15T22:15:08.944Z,91.30
2023-01-15T22:17:16.125Z,91.20
2023-01-15T22:19:23.770Z,91.50
2023-01-15T22:21:31.101Z,91.40
2023-01-15T22:23:38.234Z,91.30
2023-01-15T22:25:47.308Z,91.20
2023-01-15T22:27:55.052Z,91.00
2023-01-15T22:30:02.390Z,90.80
2023-01-15T22:32:10.407Z,90.60
2023-01-15T22:34:17.420Z,90.50
2023-01-15T22:36:25.112Z,90.40
2023-01-15T22:38:33.213Z,90.30
2023-01-15T22:40:40.548Z,90.20
2023-01-15T22:42:49.637Z,90.20
2023-01-15T22:44:56.860Z,90.20
2023-01-15T22:47:04.985Z,90.40
2023-01-15T22:49:11.886Z,90.60
2023-01-15T22:51:18.963Z,90.50
2023-01-15T22:53:25.891Z,90.50
2023-01-15T22:55:33.287Z,90.50
2023-01-15T22:57:40.203Z,90.50
2023-01-15T22:59:51.286Z,90.50
2023-01-15T23:01:58.255Z,90.50
2023-01-15T23:04:05.605Z,90.40
2023-01-15T23:06:14.152Z,90.40
2023-01-15T23:08:21.390Z,90.30
2023-01-15T23:10:28.467Z,90.30
2023-01-15T23:12:36.669Z,90.70
2023-01-15T23:14:43.595Z,91.10
2023-01-15T23:16:52.625Z,91.30
2023-01-15T23:18:59.701Z,91.40
2023-01-15T23:21:07.811Z,91.60
2023-01-15T23:23:14.782Z,91.80
2023-01-15T23:25:22.016Z,91.80
2023-01-15T23:27:28.936Z,91.70
2023-01-15T23:29:36.375Z,91.50
2023-01-15T23:31:43.365Z,91.40
2023-01-15T23:33:52.335Z,91.40
2023-01-15T23:36:00.275Z,91.30
2023-01-15T23:38:07.611Z,91.20
2023-01-15T23:40:15.407Z,91.20
2023-01-15T23:42:39.210Z,91.10
2023-01-15T23:45:02.589Z,91.10
2023-01-15T23:47:10.538Z,91.40
2023-01-15T23:49:20.636Z,91.60
2023-01-15T23:51:28.182Z,91.50
2023-01-15T23:53:35.308Z,92.10
2023-01-15T23:55:42.604Z,92.30
2023-01-15T23:57:49.418Z,92.40
2023-01-15T23:59:56.596Z,92.40
